Terminal Aerodrome Forecast
Issued by NWS

Current Version | Previous Version | Text Only | Print | Product List | Glossary On
Versions: 1 2 3 4 5 6 7 8 9 10 11 12 13 14 15 16 17 18 19 20 21 22 23
000
FTUS43 KGRR 261100
TAFBTL
TAF
KBTL 261140Z 2612/2712 12004KT P6SM OVC025
     FM270500 01004KT P6SM -SHSN OVC035
     FM271100 34005KT 4SM -SN OVC025=

USA.gov is the U.S. government's official web portal to all federal, state and local government web resources and services.